Time;durP1;ratioP1;P1;durP2;ratioP2;P2;SDS_P1;SDS_P2;PMS_P1;PMS_P2;Temp;Humidity;BMP_temperature;BMP_pressure;BME280_temperature;BME280_humidity;BME280_pressure;Samples;Min_cycle;Max_cycle;Signal;HPM_P1;HPM_P2
2021/03/10 00:02:01;;;;;;;32.63;20.75;;;;;;;4.32;78.60;99007.09;5059823;28;20059;-72
2021/03/10 00:04:26;;;;;;;39.88;22.73;;;;;;;4.20;78.90;99006.94;5060209;28;20025;-72
2021/03/10 00:06:52;;;;;;;34.42;19.73;;;;;;;4.26;79.28;99007.03;5060057;28;20025;-72
2021/03/10 00:09:17;;;;;;;31.88;20.00;;;;;;;4.19;77.61;99000.09;5055863;28;20040;-72
2021/03/10 00:11:42;;;;;;;31.90;18.85;;;;;;;4.21;78.07;99003.56;5053814;28;20029;-72
2021/03/10 00:14:08;;;;;;;30.77;18.52;;;;;;;4.36;77.87;99011.41;5053783;28;20543;-72
2021/03/10 00:16:33;;;;;;;30.42;18.63;;;;;;;4.27;78.21;99006.16;5054124;28;20036;-72
2021/03/10 00:18:59;;;;;;;26.98;18.80;;;;;;;4.29;79.71;99004.47;5053850;28;20025;-72
2021/03/10 00:21:24;;;;;;;31.92;20.08;;;;;;;4.22;79.94;99015.53;5053668;28;20033;-72
2021/03/10 00:23:49;;;;;;;28.10;19.30;;;;;;;4.25;79.29;99018.09;5053708;28;20025;-72
2021/03/10 00:26:14;;;;;;;29.77;20.67;;;;;;;4.55;78.09;99014.16;5053818;28;20029;-72
2021/03/10 00:28:40;;;;;;;31.45;17.90;;;;;;;4.39;78.55;99013.97;5052299;28;20024;-72
2021/03/10 00:31:05;;;;;;;32.05;19.13;;;;;;;4.55;77.51;99009.03;5053505;28;20060;-72
2021/03/10 00:33:30;;;;;;;31.42;20.17;;;;;;;4.51;76.88;99018.41;5053634;28;20499;-72
2021/03/10 00:35:56;;;;;;;34.83;18.85;;;;;;;4.54;76.73;99017.56;5053805;28;20028;-72
2021/03/10 00:38:21;;;;;;;31.10;19.38;;;;;;;4.49;78.06;99029.47;5053687;28;21333;-72
2021/03/10 00:40:46;;;;;;;31.27;20.02;;;;;;;4.47;78.19;99026.03;5053479;28;20028;-72
2021/03/10 00:43:12;;;;;;;31.27;19.35;;;;;;;4.48;78.44;99028.63;5053282;28;20033;-72
2021/03/10 00:45:37;;;;;;;31.25;19.63;;;;;;;4.43;79.03;99026.84;5053243;28;20071;-72
2021/03/10 00:48:02;;;;;;;30.65;19.20;;;;;;;4.54;77.85;99035.50;5053277;28;20492;-72
2021/03/10 00:50:28;;;;;;;29.92;18.77;;;;;;;4.51;77.93;99038.91;5053282;28;20056;-72
2021/03/10 00:52:55;;;;;;;41.33;21.17;;;;;;;4.47;78.75;99036.31;5053072;28;20148;-72
2021/03/10 00:55:21;;;;;;;30.80;20.10;;;;;;;4.53;77.80;99036.38;5051463;28;20083;-72
2021/03/10 00:57:46;;;;;;;34.22;19.75;;;;;;;4.53;77.80;99036.38;5053051;28;20545;-72
2021/03/10 05:16:39;;;;;;;49.63;26.43;;;;;;;3.99;81.62;99091.28;5461066;22;20148;-73
2021/03/10 05:19:04;;;;;;;50.78;27.90;;;;;;;3.95;81.81;99081.84;4985931;28;20038;-73
2021/03/10 05:21:29;;;;;;;48.88;26.48;;;;;;;3.92;82.10;99098.06;4985502;28;20022;-73
2021/03/10 05:23:55;;;;;;;54.42;29.10;;;;;;;3.98;81.83;99087.88;4986377;28;21959;-73
2021/03/10 05:26:20;;;;;;;47.03;28.27;;;;;;;4.01;82.09;99092.16;4982775;28;20387;-73
2021/03/10 05:28:45;;;;;;;48.50;26.92;;;;;;;3.84;82.84;99085.13;4980563;28;20403;-72
2021/03/10 05:31:11;;;;;;;47.13;26.92;;;;;;;3.80;82.82;99092.75;4985601;28;20037;-72
2021/03/10 05:33:36;;;;;;;50.13;26.88;;;;;;;3.84;82.79;99095.38;4986128;28;20029;-72
2021/03/10 05:36:04;;;;;;;50.67;28.48;;;;;;;3.86;83.73;99097.94;4986045;28;20029;-72
2021/03/10 05:38:31;;;;;;;50.30;29.63;;;;;;;3.89;82.82;99102.28;4985958;28;20143;-72
2021/03/10 05:40:57;;;;;;;52.30;29.80;;;;;;;3.92;83.39;99107.44;4985961;28;20026;-72
2021/03/10 05:43:23;;;;;;;53.00;28.67;;;;;;;3.97;83.27;99105.81;4986134;28;21330;-72
2021/03/10 05:45:49;;;;;;;51.60;28.90;;;;;;;4.03;83.03;99100.75;4986093;28;20030;-72
2021/03/10 05:48:14;;;;;;;48.80;26.85;;;;;;;4.02;82.68;99105.03;4985632;28;20034;-72
2021/03/10 05:50:39;;;;;;;49.30;28.63;;;;;;;3.98;82.76;99110.09;4985903;28;20427;-71
2021/03/10 05:53:09;;;;;;;47.40;28.40;;;;;;;4.03;83.47;99111.00;4985585;28;20023;-72
2021/03/10 05:55:34;;;;;;;45.85;26.60;;;;;;;4.08;82.53;99106.81;4985851;28;20049;-72
2021/03/10 05:58:00;;;;;;;47.28;27.65;;;;;;;4.00;81.31;99114.38;4985759;28;20120;-71
2021/03/10 06:00:26;;;;;;;49.00;28.17;;;;;;;4.07;82.48;99115.34;4985792;28;20131;-72
2021/03/10 06:02:52;;;;;;;50.03;28.25;;;;;;;4.11;82.38;99122.25;4985360;28;20037;-71
2021/03/10 06:05:19;;;;;;;47.30;28.08;;;;;;;4.10;82.08;99113.66;4955726;28;20050;-72
2021/03/10 06:07:44;;;;;;;50.63;28.90;;;;;;;4.09;81.52;99118.78;4947775;28;20035;-71
2021/03/10 06:10:10;;;;;;;48.97;28.05;;;;;;;4.12;82.34;99117.13;4945096;29;20027;-72
2021/03/10 06:12:45;;;;;;;55.47;29.77;;;;;;;4.15;82.93;99116.28;4941550;29;20023;-71
2021/03/10 06:15:12;;;;;;;51.28;28.77;;;;;;;4.18;82.52;99112.91;4944252;28;20070;-71
2021/03/10 06:17:49;;;;;;;47.70;28.15;;;;;;;3.97;82.02;99116.06;4944039;29;21518;-72
2021/03/10 06:20:30;;;;;;;53.28;28.75;;;;;;;3.99;81.79;99122.06;4941342;29;20042;-72
2021/03/10 06:22:56;;;;;;;50.78;28.27;;;;;;;4.04;82.44;99128.09;4943856;29;20035;-71
2021/03/10 06:25:34;;;;;;;51.78;29.23;;;;;;;4.03;81.83;99136.66;4941845;29;20044;-72
2021/03/10 06:28:00;;;;;;;56.05;29.95;;;;;;;4.08;81.33;99140.13;4940413;29;20081;-72
2021/03/10 06:30:31;;;;;;;54.55;29.55;;;;;;;4.13;82.10;99139.34;4944815;29;20024;-72
2021/03/10 06:32:57;;;;;;;50.20;28.73;;;;;;;4.23;81.83;99142.91;4944676;29;20467;-72
2021/03/10 06:35:29;;;;;;;53.00;28.52;;;;;;;4.29;81.65;99145.53;4943603;29;20023;-72
2021/03/10 06:38:14;;;;;;;49.10;27.80;;;;;;;4.46;79.95;99139.78;4942035;29;20035;-72
2021/03/10 06:41:05;;;;;;;48.45;28.70;;;;;;;4.55;77.93;99152.72;4943974;29;20366;-72
2021/03/10 06:43:40;;;;;;;51.92;29.60;;;;;;;4.44;78.67;99151.72;4944273;29;20118;-72
2021/03/10 06:46:13;;;;;;;57.15;31.25;;;;;;;4.43;78.92;99150.00;4974453;28;20436;-72
2021/03/10 06:48:39;;;;;;;50.60;28.95;;;;;;;4.44;78.83;99150.00;4943685;29;20115;-72
2021/03/10 06:51:13;;;;;;;52.78;28.42;;;;;;;4.45;79.26;99145.72;4943287;29;20057;-72
2021/03/10 06:53:38;;;;;;;60.65;29.85;;;;;;;4.51;79.54;99145.81;4941693;28;20030;-72
2021/03/10 06:56:04;;;;;;;52.28;28.27;;;;;;;4.54;78.58;99148.41;4943501;29;20031;-72
2021/03/10 06:58:29;;;;;;;51.70;28.42;;;;;;;4.59;78.10;99151.88;4940664;29;20042;-72
2021/03/10 07:01:01;;;;;;;51.13;29.60;;;;;;;4.67;78.13;99157.13;4937341;28;20050;-72
2021/03/10 07:03:28;;;;;;;51.38;28.92;;;;;;;4.66;77.38;99161.41;4957601;28;20063;-72
2021/03/10 07:05:54;;;;;;;49.10;28.42;;;;;;;4.61;78.40;99163.06;4941716;28;20039;-72
2021/03/10 07:08:19;;;;;;;54.72;29.75;;;;;;;4.52;79.59;99161.22;4942884;29;21396;-72
2021/03/10 07:10:46;;;;;;;48.40;28.45;;;;;;;4.61;79.53;99163.06;4943189;28;20111;-72
2021/03/10 07:13:13;;;;;;;60.45;28.35;;;;;;;4.81;77.84;99173.53;4974599;28;20399;-72
2021/03/10 07:15:38;;;;;;;49.88;29.20;;;;;;;4.73;76.93;99172.59;4943458;28;20046;-72
2021/03/10 07:18:05;;;;;;;54.25;28.77;;;;;;;4.70;78.04;99183.69;4943804;29;20035;-72
2021/03/10 07:20:31;;;;;;;48.85;27.63;;;;;;;4.94;77.13;99183.13;4943847;29;20027;-72
2021/03/10 07:23:06;;;;;;;52.85;27.67;;;;;;;4.97;76.56;99177.13;4943103;29;20107;-72
2021/03/10 07:25:34;;;;;;;48.22;28.60;;;;;;;4.97;76.13;99177.13;4944191;29;20603;-72
2021/03/10 07:28:11;;;;;;;47.42;27.38;;;;;;;5.10;76.12;99184.13;4939677;28;20089;-72
2021/03/10 07:30:40;;;;;;;53.03;28.80;;;;;;;5.12;76.24;99174.72;4943028;29;20035;-72
2021/03/10 07:33:11;;;;;;;53.22;28.30;;;;;;;5.31;74.58;99174.06;4942052;28;20062;-72
2021/03/10 07:35:55;;;;;;;50.42;29.48;;;;;;;5.39;74.26;99177.56;4940986;29;20035;-72
2021/03/10 07:38:23;;;;;;;47.83;28.55;;;;;;;5.58;73.90;99182.88;4940896;29;20054;-72
2021/03/10 07:40:58;;;;;;;51.80;27.90;;;;;;;5.51;73.90;99187.13;4941811;29;20106;-72
2021/03/10 07:43:37;;;;;;;51.63;29.55;;;;;;;5.25;75.41;99188.56;4942196;29;20031;-72
2021/03/10 07:46:04;;;;;;;53.50;28.58;;;;;;;5.25;74.88;99189.41;4943209;29;20043;-72
2021/03/10 07:48:34;;;;;;;50.72;28.60;;;;;;;5.38;74.51;99191.25;4942045;29;20035;-72
2021/03/10 07:50:59;;;;;;;;;;;;;;;5.55;74.33;99191.41;4941137;29;20667;-72
2021/03/10 07:53:36;;;;;;;50.85;28.50;;;;;;;5.81;72.75;99196.78;4944077;28;19926;-72
2021/03/10 07:56:01;;;;;;;51.03;30.15;;;;;;;5.76;72.74;99197.59;4942438;29;20035;-72
2021/03/10 07:58:29;;;;;;;57.83;33.47;;;;;;;5.65;72.79;99197.50;4941098;29;20513;-72
2021/03/10 08:00:56;;;;;;;51.45;28.58;;;;;;;5.62;73.06;99200.06;4943108;28;20031;-72
2021/03/10 08:03:33;;;;;;;44.45;27.17;;;;;;;5.91;72.58;99202.84;4941881;29;20090;-72
2021/03/10 08:06:03;;;;;;;45.85;27.13;;;;;;;6.26;71.89;99200.53;4943499;28;20035;-72
2021/03/10 08:08:38;;;;;;;;;;;;;;;6.83;68.87;99199.13;4944337;29;20023;-72
2021/03/10 08:11:10;;;;;;;44.83;27.65;;;;;;;6.94;67.97;99204.31;4945309;28;19922;-72
2021/03/10 08:13:36;;;;;;;45.03;27.92;;;;;;;7.16;67.85;99202.66;4943467;28;20027;-72
2021/03/10 08:16:06;;;;;;;47.25;27.42;;;;;;;7.20;67.12;99205.25;4946843;28;20038;-72
2021/03/10 08:18:32;;;;;;;46.80;27.63;;;;;;;7.06;67.41;99190.59;4946983;29;20450;-72
2021/03/10 08:21:12;;;;;;;53.15;30.77;;;;;;;7.08;68.37;99206.94;4945625;29;20150;-72
2021/03/10 08:23:38;;;;;;;42.97;26.88;;;;;;;7.13;67.63;99207.78;4944665;29;20032;-72
2021/03/10 08:26:05;;;;;;;44.65;26.30;;;;;;;6.91;68.38;99207.75;4944574;29;20043;-72
2021/03/10 08:28:36;;;;;;;44.35;27.38;;;;;;;6.49;69.96;99218.69;4948202;29;20026;-72
2021/03/10 08:31:04;;;;;;;54.67;29.73;;;;;;;7.17;67.77;99204.38;4947840;29;20111;-72
2021/03/10 08:33:30;;;;;;;61.88;33.72;;;;;;;7.14;67.76;99209.50;4946189;29;20030;-73
2021/03/10 08:35:56;;;;;;;48.38;27.92;;;;;;;7.64;66.87;99211.31;4943389;29;20038;-73
2021/03/10 08:38:22;;;;;;;42.63;25.75;;;;;;;7.56;66.39;99206.16;4944365;29;20027;-72
2021/03/10 08:40:48;;;;;;;43.80;26.55;;;;;;;8.07;64.16;99200.97;4945819;29;20101;-73
2021/03/10 08:43:18;;;;;;;46.33;25.88;;;;;;;8.32;63.27;99197.53;4946966;29;20038;-72
2021/03/10 08:45:44;;;;;;;45.17;26.23;;;;;;;7.86;65.17;99202.72;4946308;28;20035;-72
2021/03/10 08:48:12;;;;;;;42.53;26.10;;;;;;;7.94;65.32;99201.00;4944636;29;20023;-72
2021/03/10 08:50:47;;;;;;;44.10;26.27;;;;;;;8.36;64.00;99194.06;4945360;28;20039;-72
2021/03/10 08:53:14;;;;;;;46.40;26.65;;;;;;;7.80;65.18;99202.72;4945965;29;20062;-72
2021/03/10 08:55:41;;;;;;;43.60;27.02;;;;;;;7.08;67.57;99204.34;4945499;29;20027;-72
2021/03/10 08:58:14;;;;;;;49.85;27.40;;;;;;;7.63;67.47;99201.84;4960987;28;20023;-72
2021/03/10 09:00:41;;;;;;;44.75;26.83;;;;;;;8.28;64.94;99190.63;4944619;29;20034;-72
2021/03/10 09:03:16;;;;;;;47.92;27.92;;;;;;;8.31;63.78;99197.50;4944887;29;20038;-73
2021/03/10 09:05:43;;;;;;;44.22;26.63;;;;;;;8.24;62.66;99191.50;4943789;28;20118;-72
2021/03/10 09:08:10;;;;;;;63.40;31.73;;;;;;;8.10;63.29;99190.66;4945001;29;20082;-72
2021/03/10 09:10:38;;;;;;;40.42;25.33;;;;;;;8.10;63.87;99185.50;4944384;29;20042;-72
2021/03/10 09:13:04;;;;;;;42.88;26.65;;;;;;;8.32;63.27;99194.94;4944245;28;20381;-72
2021/03/10 09:15:31;;;;;;;50.75;27.77;;;;;;;8.36;63.14;99196.66;4944422;28;20039;-72
2021/03/10 09:18:04;;;;;;;45.63;26.45;;;;;;;8.67;62.54;99194.88;4943366;28;20030;-73
2021/03/10 09:20:32;;;;;;;52.40;28.45;;;;;;;8.42;62.85;99201.84;4943770;28;20030;-72
2021/03/10 09:22:58;;;;;;;42.63;25.08;;;;;;;8.58;61.85;99186.28;4949727;29;20564;-72
2021/03/10 09:25:27;;;;;;;45.58;26.15;;;;;;;8.46;62.39;99195.81;4955178;29;20031;-72
2021/03/10 09:28:12;;;;;;;47.00;27.42;;;;;;;8.70;62.20;99193.97;4939724;28;20031;-72
2021/03/10 09:30:45;;;;;;;40.95;25.10;;;;;;;9.05;60.37;99185.22;4930620;28;20114;-72
2021/03/10 09:33:18;;;;;;;39.95;24.27;;;;;;;8.78;61.75;99187.06;4929126;28;20035;-72
2021/03/10 09:35:54;;;;;;;40.28;23.90;;;;;;;9.15;60.45;99186.91;4913500;28;20376;-72
2021/03/10 09:38:20;;;;;;;46.03;26.13;;;;;;;10.09;57.53;99174.09;4906781;28;20153;-72
2021/03/10 09:41:00;;;;;;;42.60;24.33;;;;;;;10.81;55.24;99176.78;4908720;28;20038;-73
2021/03/10 09:43:28;;;;;;;47.33;25.90;;;;;;;12.24;51.45;99171.13;4904391;28;20046;-73
2021/03/10 09:46:02;;;;;;;39.42;22.90;;;;;;;12.00;49.98;99179.38;4896019;28;20051;-73
2021/03/10 09:48:39;;;;;;;35.53;22.30;;;;;;;11.43;51.96;99180.25;4894114;28;20031;-73
2021/03/10 09:51:09;;;;;;;45.20;26.02;;;;;;;10.52;54.79;99180.56;4874952;28;20074;-72
2021/03/10 09:53:40;;;;;;;49.08;25.70;;;;;;;10.38;54.56;99174.69;4850967;28;20448;-72
2021/03/10 09:56:10;;;;;;;44.33;24.85;;;;;;;10.14;55.28;99178.34;4859923;28;20031;-73
2021/03/10 09:58:49;;;;;;;41.35;22.80;;;;;;;10.41;54.62;99182.44;4879885;28;20641;-73
2021/03/10 10:01:14;;;;;;;43.78;24.33;;;;;;;11.28;53.25;99177.88;4887207;28;20190;-73
2021/03/10 10:03:40;;;;;;;35.30;22.90;;;;;;;12.41;50.37;99169.97;4879977;28;20027;-73
2021/03/10 10:06:09;;;;;;;43.03;23.88;;;;;;;13.58;46.44;99170.03;4898077;28;22222;-72
2021/03/10 10:08:36;;;;;;;33.42;20.23;;;;;;;15.09;41.37;99165.16;4891335;28;20031;-73
2021/03/10 10:11:04;;;;;;;32.53;19.33;;;;;;;15.29;39.75;99172.38;4880913;28;20123;-73
2021/03/10 10:13:29;;;;;;;33.97;21.48;;;;;;;14.09;43.26;99172.25;4887237;28;20440;-72
2021/03/10 10:15:54;;;;;;;43.00;22.10;;;;;;;12.09;46.73;99185.25;4903042;28;20038;-72
2021/03/10 10:18:20;;;;;;;41.92;23.45;;;;;;;11.45;48.05;99188.84;4898229;28;20714;-72
2021/03/10 10:20:45;;;;;;;35.53;21.05;;;;;;;11.10;50.13;99180.72;4919938;28;20031;-72
2021/03/10 10:23:10;;;;;;;26.58;16.42;;;;;;;10.76;49.31;99183.75;4929396;28;20105;-72
2021/03/10 10:25:36;;;;;;;47.97;23.17;;;;;;;9.73;52.84;99189.09;4930014;28;20035;-72
2021/03/10 10:28:01;;;;;;;37.05;21.38;;;;;;;9.91;53.81;99185.47;4931327;28;20031;-72
2021/03/10 10:30:27;;;;;;;31.30;18.60;;;;;;;9.96;53.24;99184.56;4930307;28;20027;-71
2021/03/10 10:32:52;;;;;;;35.13;19.88;;;;;;;9.63;52.01;99179.69;4929358;28;20028;-72
2021/03/10 10:35:18;;;;;;;27.00;17.10;;;;;;;9.72;52.49;99184.78;4933624;28;20780;-72
2021/03/10 10:37:44;;;;;;;28.70;17.58;;;;;;;9.66;51.90;99180.50;4936302;28;20054;-72
2021/03/10 10:40:17;;;;;;;27.13;18.15;;;;;;;9.76;51.98;99186.44;4940002;28;20070;-72
2021/03/10 10:42:43;;;;;;;27.38;16.85;;;;;;;9.55;52.58;99184.91;4951589;28;20031;-72
2021/03/10 10:45:08;;;;;;;29.05;16.60;;;;;;;9.60;52.04;99184.88;4941777;28;20183;-72
2021/03/10 10:47:34;;;;;;;29.08;17.52;;;;;;;10.19;51.56;99178.31;4937021;28;20042;-71
2021/03/10 10:50:01;;;;;;;41.28;23.58;;;;;;;11.39;47.78;99173.38;4938335;28;20090;-72
2021/03/10 10:52:27;;;;;;;25.92;17.27;;;;;;;11.37;47.66;99166.50;4937660;28;20027;-72
2021/03/10 10:54:52;;;;;;;29.10;17.23;;;;;;;12.02;46.75;99162.88;4942165;29;20022;-72
2021/03/10 10:57:18;;;;;;;27.17;16.52;;;;;;;11.81;46.59;99158.88;4937790;29;21496;-71
2021/03/10 10:59:43;;;;;;;26.67;17.30;;;;;;;10.16;50.87;99162.81;4941749;29;20037;-73
2021/03/10 11:02:09;;;;;;;29.10;18.20;;;;;;;10.79;48.99;99163.00;4941566;29;20031;-72
2021/03/10 11:04:34;;;;;;;38.05;23.27;;;;;;;10.65;49.83;99159.72;4938087;28;20023;-71
2021/03/10 11:07:00;;;;;;;19.38;11.98;;;;;;;10.40;47.01;99156.56;4906555;28;20146;-72
2021/03/10 11:09:25;;;;;;;16.85;11.38;;;;;;;9.84;48.83;99158.78;4940511;28;20154;-71
2021/03/10 11:11:52;;;;;;;16.80;11.15;;;;;;;9.61;47.84;99165.88;4940931;28;20098;-71
2021/03/10 11:14:18;;;;;;;15.23;9.07;;;;;;;9.38;46.78;99164.34;4943172;28;20030;-72
2021/03/10 11:16:43;;;;;;;11.98;7.45;;;;;;;9.32;45.80;99159.19;4927917;28;20128;-71
2021/03/10 11:19:09;;;;;;;10.75;6.18;;;;;;;9.40;44.99;99159.16;4927416;28;20023;-72
2021/03/10 11:21:34;;;;;;;18.15;7.20;;;;;;;9.79;44.63;99155.38;4939734;28;20081;-71
2021/03/10 11:23:59;;;;;;;12.98;6.68;;;;;;;10.16;43.15;99155.03;4943074;28;20027;-72
2021/03/10 11:26:25;;;;;;;11.55;6.13;;;;;;;10.86;42.79;99149.06;4926344;28;20457;-72
2021/03/10 11:28:50;;;;;;;20.05;10.80;;;;;;;11.62;39.99;99162.66;4984603;23;20035;-69
2021/03/10 11:31:15;;;;;;;15.40;7.00;;;;;;;10.91;40.73;99152.44;4950260;28;20183;-68
2021/03/10 11:33:41;;;;;;;10.77;6.40;;;;;;;10.44;41.54;99140.97;4952011;28;20035;-68
2021/03/10 11:36:07;;;;;;;9.00;5.75;;;;;;;10.12;42.44;99143.84;4952329;28;20125;-68
2021/03/10 11:38:33;;;;;;;13.68;9.38;;;;;;;9.78;45.42;99144.19;4952355;28;20058;-68
2021/03/10 11:40:59;;;;;;;15.93;9.85;;;;;;;9.84;45.86;99143.25;4954663;28;20122;-68
2021/03/10 11:43:24;;;;;;;15.10;9.90;;;;;;;9.81;45.92;99148.44;4955616;28;20039;-68
2021/03/10 11:45:50;;;;;;;18.05;11.05;;;;;;;9.53;45.58;99145.25;4956007;28;20134;-68
2021/03/10 11:48:15;;;;;;;24.27;10.60;;;;;;;9.36;46.22;99145.38;4956165;28;20113;-68
2021/03/10 11:50:41;;;;;;;14.65;9.32;;;;;;;9.94;44.55;99139.72;4955951;28;20189;-68
2021/03/10 11:53:07;;;;;;;16.17;8.60;;;;;;;10.78;41.88;99140.50;4956056;28;20411;-68
2021/03/10 11:55:32;;;;;;;12.65;9.20;;;;;;;10.27;42.40;99148.03;4955493;28;20067;-68
2021/03/10 11:57:58;;;;;;;13.20;7.85;;;;;;;11.31;41.00;99132.00;4956264;28;20156;-68
2021/03/10 12:00:24;;;;;;;12.00;7.93;;;;;;;11.28;40.44;99146.75;4956118;28;20496;-68
2021/03/10 12:02:50;;;;;;;12.80;7.88;;;;;;;12.22;39.83;99130.47;4955675;28;20035;-68
2021/03/10 12:05:16;;;;;;;14.75;8.68;;;;;;;12.22;38.26;99133.06;4955973;28;20026;-68
2021/03/10 12:07:41;;;;;;;12.07;8.18;;;;;;;13.24;37.07;99127.50;4955418;28;20035;-68
2021/03/10 12:10:07;;;;;;;10.77;7.85;;;;;;;14.05;35.34;99113.31;4955932;28;20031;-68
2021/03/10 12:12:32;;;;;;;13.32;8.30;;;;;;;13.50;35.73;99114.72;4955718;28;20074;-68
2021/03/10 12:14:58;;;;;;;15.25;9.38;;;;;;;12.65;38.15;99116.63;4955938;28;20059;-68
2021/03/10 12:17:23;;;;;;;14.32;8.20;;;;;;;12.80;37.15;99116.28;4955262;28;20678;-68
2021/03/10 12:19:48;;;;;;;24.05;10.40;;;;;;;12.39;37.80;99115.44;4955391;28;20110;-68
2021/03/10 12:22:14;;;;;;;13.88;9.23;;;;;;;12.04;39.26;99109.16;4955664;28;20716;-68
2021/03/10 12:24:44;;;;;;;10.70;7.57;;;;;;;11.77;38.64;99114.81;4955456;28;20023;-68
2021/03/10 12:27:09;;;;;;;;;;;;;;;11.34;38.61;99120.72;4956264;28;20067;-67
2021/03/10 12:29:34;;;;;;;9.60;6.72;;;;;;;11.24;39.83;99116.53;4955036;28;19950;-69
2021/03/10 12:32:00;;;;;;;10.35;7.30;;;;;;;10.90;38.91;99108.41;4955352;28;20030;-66
2021/03/10 12:34:25;;;;;;;11.90;7.93;;;;;;;10.70;39.96;99112.13;4955509;28;20031;-66
2021/03/10 12:36:51;;;;;;;12.55;7.65;;;;;;;10.77;40.68;99118.06;4955472;28;20114;-66
2021/03/10 12:39:16;;;;;;;11.38;7.65;;;;;;;10.66;40.63;99105.25;4955327;28;20476;-67
2021/03/10 12:41:41;;;;;;;21.45;8.23;;;;;;;10.84;40.49;99101.56;4954889;28;20027;-68
2021/03/10 12:44:07;;;;;;;14.07;8.90;;;;;;;10.71;40.92;99102.59;4955121;28;20035;-67
2021/03/10 12:46:32;;;;;;;13.32;8.60;;;;;;;10.80;41.32;99097.31;4955074;28;20114;-67
2021/03/10 12:48:58;;;;;;;12.93;8.20;;;;;;;10.52;40.71;99102.84;4955425;28;20099;-70
2021/03/10 12:51:23;;;;;;;32.97;17.50;;;;;;;10.71;41.01;99092.25;4954805;28;20498;-71
2021/03/10 12:53:48;;;;;;;11.90;8.00;;;;;;;10.48;40.81;99095.97;4955318;28;20029;-72
2021/03/10 12:56:14;;;;;;;12.90;7.93;;;;;;;10.79;40.50;99086.09;4955709;28;20696;-71
2021/03/10 12:58:39;;;;;;;14.30;8.63;;;;;;;10.77;41.50;99092.16;4964177;28;20035;-71
2021/03/10 13:01:05;;;;;;;12.65;8.73;;;;;;;10.46;42.07;99092.56;4955246;28;20102;-72
2021/03/10 13:03:30;;;;;;;15.23;8.75;;;;;;;10.58;42.44;99095.88;4954731;28;20508;-70
2021/03/10 13:05:55;;;;;;;13.18;8.20;;;;;;;10.83;41.89;99092.09;4948918;28;20031;-72
2021/03/10 13:08:21;;;;;;;12.57;8.57;;;;;;;11.13;41.08;99095.13;4954069;28;20031;-72
2021/03/10 13:10:46;;;;;;;11.80;8.35;;;;;;;11.26;40.46;99094.03;4954763;28;20023;-71
2021/03/10 13:13:11;;;;;;;12.27;7.68;;;;;;;11.09;41.25;99093.44;4954206;28;20488;-70
2021/03/10 13:15:37;;;;;;;11.75;7.40;;;;;;;11.06;39.25;99090.00;4953762;28;20066;-72
2021/03/10 13:18:02;;;;;;;12.23;7.95;;;;;;;11.06;40.40;99090.00;4954724;28;20113;-71
2021/03/10 13:20:28;;;;;;;14.48;10.35;;;;;;;11.48;38.59;99077.25;4955182;28;20246;-70
2021/03/10 13:22:53;;;;;;;8.75;6.80;;;;;;;10.73;39.86;99069.75;4955157;28;20031;-72
2021/03/10 13:25:18;;;;;;;9.10;6.13;;;;;;;11.03;39.18;99068.47;4954160;28;20027;-72
2021/03/10 13:27:45;;;;;;;11.10;7.25;;;;;;;10.87;39.45;99065.22;4954140;28;20038;-73
2021/03/10 13:30:11;;;;;;;9.32;6.53;;;;;;;11.03;38.86;99058.09;4952792;28;20093;-72
2021/03/10 13:32:37;;;;;;;8.32;6.15;;;;;;;11.00;38.25;99055.53;4952725;28;20038;-72
2021/03/10 13:35:03;;;;;;;8.63;6.15;;;;;;;10.60;39.35;99052.66;4954394;28;20022;-71
2021/03/10 13:37:28;;;;;;;9.13;6.75;;;;;;;10.76;39.74;99052.41;4953029;28;20031;-71
2021/03/10 13:39:54;;;;;;;9.82;6.18;;;;;;;10.78;39.25;99057.56;4953720;28;20412;-72
2021/03/10 13:42:19;;;;;;;8.75;5.78;;;;;;;10.79;38.77;99054.13;4954048;28;20034;-72
2021/03/10 13:44:44;;;;;;;8.57;6.47;;;;;;;10.25;41.03;99051.38;4953233;28;20031;-72
2021/03/10 13:47:10;;;;;;;9.05;6.10;;;;;;;10.18;41.79;99044.53;4952929;28;20042;-72
2021/03/10 13:49:35;;;;;;;7.75;6.18;;;;;;;10.32;41.07;99045.25;4953132;28;20086;-71
2021/03/10 13:52:00;;;;;;;22.15;12.73;;;;;;;11.00;39.40;99042.56;4953246;28;20054;-71
2021/03/10 13:54:26;;;;;;;9.07;5.57;;;;;;;10.61;40.39;99044.00;4953967;28;20019;-72
2021/03/10 13:56:51;;;;;;;8.48;5.70;;;;;;;11.04;39.74;99039.06;4953789;28;20027;-74
2021/03/10 13:59:17;;;;;;;9.13;5.68;;;;;;;10.54;40.27;99038.94;4954077;28;20027;-74
2021/03/10 14:01:42;;;;;;;11.05;5.40;;;;;;;10.26;40.70;99032.38;4943610;28;20031;-74
2021/03/10 14:04:07;;;;;;;6.50;5.28;;;;;;;10.41;39.97;99021.81;4939089;28;20196;-75
2021/03/10 14:06:33;;;;;;;7.13;5.32;;;;;;;10.46;40.12;99019.19;4936836;28;20408;-74
2021/03/10 14:08:58;;;;;;;9.02;5.88;;;;;;;11.01;38.84;99011.41;4928156;28;20452;-70
2021/03/10 14:11:23;;;;;;;7.72;5.18;;;;;;;11.04;40.02;99003.59;4929616;28;20050;-67
2021/03/10 14:13:49;;;;;;;7.55;5.15;;;;;;;11.05;40.10;99007.91;4922601;28;20365;-68
2021/03/10 14:16:15;;;;;;;8.25;5.45;;;;;;;10.94;38.96;98999.44;4916526;28;20076;-68
2021/03/10 14:18:40;;;;;;;9.15;6.20;;;;;;;11.12;39.26;99010.38;4916166;28;20030;-67
2021/03/10 14:21:06;;;;;;;9.20;5.75;;;;;;;11.02;38.86;99015.75;4904916;28;20142;-69
2021/03/10 14:23:31;;;;;;;7.95;5.35;;;;;;;10.31;40.66;99020.25;4905744;28;20030;-69
2021/03/10 14:25:57;;;;;;;8.77;5.38;;;;;;;10.33;40.09;99017.63;4908881;28;20464;-69
2021/03/10 14:28:22;;;;;;;8.75;4.70;;;;;;;9.83;40.92;99012.16;4909830;28;20035;-66
2021/03/10 14:30:47;;;;;;;10.07;4.97;;;;;;;10.46;40.39;99017.44;4911985;28;20125;-69
2021/03/10 14:33:13;;;;;;;7.68;5.07;;;;;;;10.90;39.85;99018.53;4925978;28;20061;-69
2021/03/10 14:35:38;;;;;;;7.22;5.25;;;;;;;11.12;39.08;99015.56;4924925;28;20038;-69
2021/03/10 14:38:06;;;;;;;7.43;5.07;;;;;;;9.68;40.67;99012.31;4938642;28;20027;-69
2021/03/10 14:40:31;;;;;;;7.70;5.65;;;;;;;10.02;39.63;99008.47;4937235;28;20039;-69
2021/03/10 14:42:56;;;;;;;7.45;5.05;;;;;;;10.18;40.73;99013.47;4947015;28;20031;-67
2021/03/10 14:45:22;;;;;;;10.02;5.18;;;;;;;10.67;38.79;99007.63;4948090;28;20428;-71
2021/03/10 14:47:48;;;;;;;7.28;5.05;;;;;;;11.10;38.81;99006.97;4947891;28;20125;-68
2021/03/10 14:50:13;;;;;;;6.15;4.88;;;;;;;11.28;37.91;98998.91;4965232;28;20062;-74
2021/03/10 14:52:39;;;;;;;7.55;4.78;;;;;;;11.16;38.16;99001.69;4953193;28;20122;-67
2021/03/10 14:55:06;;;;;;;7.03;4.97;;;;;;;10.90;38.09;98999.53;4953055;28;20022;-73
2021/03/10 14:57:32;;;;;;;5.90;4.35;;;;;;;10.92;39.17;98996.00;4952910;28;20088;-68
2021/03/10 14:59:57;;;;;;;5.53;4.22;;;;;;;11.11;38.39;98998.31;4953035;28;20031;-68
2021/03/10 15:02:22;;;;;;;7.30;4.03;;;;;;;11.03;38.62;98994.13;4951528;28;20038;-71
2021/03/10 15:04:49;;;;;;;5.07;4.10;;;;;;;11.32;37.99;98985.00;4952673;28;20058;-74
2021/03/10 15:07:15;;;;;;;6.18;4.40;;;;;;;11.19;37.69;98997.31;4951375;28;20122;-72
2021/03/10 15:09:40;;;;;;;7.80;4.85;;;;;;;10.84;38.34;98995.31;4952619;28;20864;-76
2021/03/10 15:12:06;;;;;;;4.95;3.50;;;;;;;11.03;38.57;98986.34;4951952;28;20109;-69
2021/03/10 15:14:31;;;;;;;6.05;4.15;;;;;;;10.71;39.50;98984.25;4950519;28;20023;-70
2021/03/10 15:16:56;;;;;;;5.88;4.70;;;;;;;10.95;39.32;98982.16;4951991;28;20563;-68
2021/03/10 15:19:22;;;;;;;5.45;4.25;;;;;;;10.91;39.81;98973.56;4950910;28;20035;-68
2021/03/10 15:21:47;;;;;;;7.18;4.40;;;;;;;10.97;38.66;98970.88;4951902;28;20030;-67
2021/03/10 15:24:15;;;;;;;9.23;4.40;;;;;;;11.10;38.88;98973.28;4951079;28;20034;-69
2021/03/10 15:26:41;;;;;;;9.35;4.63;;;;;;;11.14;39.67;98974.94;4952298;28;20075;-70
2021/03/10 15:29:07;;;;;;;4.93;4.40;;;;;;;11.32;37.95;98962.50;4951112;28;20576;-68
2021/03/10 15:31:33;;;;;;;13.82;7.32;;;;;;;11.19;37.96;98954.97;4952333;28;20035;-67
2021/03/10 15:33:59;;;;;;;11.85;5.30;;;;;;;11.00;37.67;98950.09;4952440;28;20396;-67
2021/03/10 15:36:25;;;;;;;9.73;6.38;;;;;;;10.31;38.51;98957.22;4951747;28;20023;-67
2021/03/10 15:38:51;;;;;;;7.07;5.35;;;;;;;10.60;38.80;98938.66;4951454;28;20028;-70
2021/03/10 15:41:16;;;;;;;8.63;5.50;;;;;;;10.60;39.13;98949.03;4952422;28;20035;-70
2021/03/10 15:43:41;;;;;;;10.45;6.13;;;;;;;10.40;38.91;98946.75;4952507;28;20485;-70